Time;durP1;ratioP1;P1;durP2;ratioP2;P2;SDS_P1;SDS_P2;PMS_P1;PMS_P2;Temp;Humidity;BMP_temperature;BMP_pressure;BME280_temperature;BME280_humidity;BME280_pressure;Samples;Min_cycle;Max_cycle;Signal;HPM_P1;HPM_P2
2023/04/07 00:00:34;;;;;;;0.37;0.30;;;;;;;4.50;58.97;94930.06;5134391;27;20474;-56
2023/04/07 00:03:05;;;;;;;0.60;0.60;;;;;;;5.03;59.06;94992.50;5133838;27;20436;-55
2023/04/07 00:05:34;;;;;;;1.27;0.40;;;;;;;4.87;58.02;94951.28;5134085;27;20950;-55
2023/04/07 00:08:03;;;;;;;0.57;0.57;;;;;;;4.39;59.11;94930.94;5134398;27;20886;-56
2023/04/07 00:10:31;;;;;;;0.53;0.50;;;;;;;4.91;58.79;94994.41;5133531;27;20456;-56
2023/04/07 00:12:59;;;;;;;2.27;0.73;;;;;;;5.03;58.44;94992.50;5133933;27;20433;-55
2023/04/07 00:15:27;;;;;;;0.43;0.37;;;;;;;5.02;58.19;94996.94;5132880;27;20441;-56
2023/04/07 00:17:56;;;;;;;0.40;0.20;;;;;;;4.99;58.94;94996.63;5133176;27;20441;-55
2023/04/07 00:20:26;;;;;;;1.93;1.40;;;;;;;4.40;60.53;94964.00;5132767;27;21169;-56
2023/04/07 00:22:54;;;;;;;0.40;0.30;;;;;;;4.42;61.00;95003.91;5133696;27;20444;-55
2023/04/07 00:25:22;;;;;;;1.07;1.07;;;;;;;4.21;61.94;95007.22;5132646;27;20501;-55
2023/04/07 00:27:51;;;;;;;0.87;0.57;;;;;;;4.23;61.98;95005.97;5106045;27;20524;-55
2023/04/07 00:30:19;;;;;;;0.80;0.30;;;;;;;4.30;62.01;95009.22;5133034;27;20532;-55
2023/04/07 00:32:47;;;;;;;1.07;0.97;;;;;;;4.27;62.07;95011.53;5132957;27;20818;-56
2023/04/07 00:35:16;;;;;;;0.40;0.20;;;;;;;4.64;61.43;95009.22;5119780;27;21100;-55
2023/04/07 00:37:46;;;;;;;1.27;0.70;;;;;;;4.50;61.03;95011.41;5133010;27;20443;-55
2023/04/07 00:40:14;;;;;;;2.00;1.13;;;;;;;4.36;60.91;95005.66;5133222;27;20469;-55
2023/04/07 00:42:42;;;;;;;1.43;0.60;;;;;;;4.57;61.51;95009.41;5133537;27;20804;-56
2023/04/07 00:45:11;;;;;;;2.10;1.00;;;;;;;4.31;61.65;95020.50;5132959;27;20447;-56
2023/04/07 00:47:40;;;;;;;0.30;0.30;;;;;;;4.13;61.79;95020.72;5133491;27;20451;-56
2023/04/07 00:50:09;;;;;;;0.50;0.40;;;;;;;4.43;61.21;95024.66;5132949;27;20435;-56
2023/04/07 00:52:37;;;;;;;0.40;0.33;;;;;;;4.59;60.87;95017.81;5133365;27;20848;-55
2023/04/07 00:55:08;;;;;;;0.50;0.40;;;;;;;4.25;61.42;95024.09;5132695;27;20466;-56
2023/04/07 00:57:37;;;;;;;1.43;0.70;;;;;;;4.30;61.73;95032.06;5133476;27;20432;-55
2023/04/07 01:00:07;;;;;;;0.40;0.30;;;;;;;4.20;62.30;95030.03;5133125;27;20479;-55
2023/04/07 01:02:40;;;;;;;0.60;0.60;;;;;;;3.90;63.00;95026.09;5133035;27;20474;-55
2023/04/07 01:05:15;;;;;;;0.50;0.50;;;;;;;3.98;62.71;95036.19;5106625;27;20440;-55
2023/04/07 01:07:53;;;;;;;1.90;0.53;;;;;;;3.95;63.44;95034.84;5133157;27;20427;-56
2023/04/07 01:10:31;;;;;;;1.37;1.00;;;;;;;3.74;63.61;95012.69;5133055;27;20520;-56
2023/04/07 01:13:06;;;;;;;0.83;0.60;;;;;;;3.84;63.69;95025.97;5132526;27;20435;-55
2023/04/07 01:15:36;;;;;;;0.80;0.80;;;;;;;3.83;63.63;95039.34;5132918;27;20442;-55
2023/04/07 01:18:13;;;;;;;0.50;0.50;;;;;;;3.87;64.14;95037.06;5105670;27;20441;-55
2023/04/07 01:20:46;;;;;;;0.60;0.50;;;;;;;3.74;63.61;95041.50;5132722;27;20563;-55
2023/04/07 01:23:41;;;;;;;0.40;0.30;;;;;;;4.26;63.14;95023.06;5131835;27;20882;-55
2023/04/07 01:26:21;;;;;;;0.30;0.20;;;;;;;4.54;62.23;95041.38;5132426;27;20805;-54
2023/04/07 01:29:30;;;;;;;1.10;1.10;;;;;;;4.26;62.26;95033.53;5132511;27;20431;-55
2023/04/07 01:32:00;;;;;;;5.70;1.03;;;;;;;4.16;62.01;95043.88;5132888;27;20801;-55
2023/04/07 01:34:31;;;;;;;0.40;0.33;;;;;;;3.80;63.35;95040.59;5132347;27;20430;-55
2023/04/07 01:37:02;;;;;;;0.40;0.30;;;;;;;3.49;63.84;95033.16;5132773;28;20450;-55
2023/04/07 01:39:32;;;;;;;0.30;0.20;;;;;;;3.76;63.73;95042.09;5136928;27;20538;-55
2023/04/07 01:42:01;;;;;;;0.40;0.40;;;;;;;3.96;63.37;95030.38;5139132;27;20558;-55
2023/04/07 01:44:33;;;;;;;2.40;0.70;;;;;;;3.97;63.34;95014.44;5139454;27;20442;-55
2023/04/07 01:47:02;;;;;;;0.33;0.27;;;;;;;3.95;63.43;95040.06;5139231;27;20514;-55
2023/04/07 01:49:31;;;;;;;0.50;0.50;;;;;;;4.21;63.18;95031.63;5139543;27;21005;-55
2023/04/07 01:52:00;;;;;;;0.30;0.30;;;;;;;4.43;62.53;95036.97;5138834;27;20449;-55
2023/04/07 01:54:29;;;;;;;0.50;0.50;;;;;;;4.18;62.90;95041.78;5138317;27;20473;-55
2023/04/07 01:56:57;;;;;;;0.30;0.30;;;;;;;4.37;62.60;95041.38;5111800;27;20922;-55
2023/04/07 01:59:25;;;;;;;0.30;0.20;;;;;;;4.07;62.30;95040.03;5138380;27;20444;-55
2023/04/07 02:01:55;;;;;;;0.40;0.30;;;;;;;4.05;62.15;95035.00;5139695;27;20481;-55
2023/04/07 02:04:31;;;;;;;0.40;0.30;;;;;;;3.49;62.52;94991.25;5139066;27;20531;-55
2023/04/07 02:07:03;;;;;;;0.30;0.20;;;;;;;4.10;62.43;95034.34;5138234;27;20475;-55
2023/04/07 02:09:33;;;;;;;0.50;0.50;;;;;;;4.02;62.69;95026.84;5138981;27;20947;-56
2023/04/07 02:12:05;;;;;;;0.30;0.30;;;;;;;4.14;62.66;95031.00;5139165;27;20440;-55
2023/04/07 02:14:34;;;;;;;0.50;0.50;;;;;;;4.13;61.50;95039.88;5139012;27;20543;-55
2023/04/07 02:17:05;;;;;;;0.53;0.50;;;;;;;3.96;61.28;95046.13;5138677;27;20444;-55
2023/04/07 02:19:34;;;;;;;0.50;0.50;;;;;;;3.67;61.94;95040.88;5138582;27;20446;-55
2023/04/07 02:22:03;;;;;;;0.50;0.27;;;;;;;4.21;61.54;95043.94;5138395;27;20509;-55
2023/04/07 02:24:31;;;;;;;0.40;0.33;;;;;;;4.13;61.52;95039.88;5138804;27;20467;-55
2023/04/07 02:27:00;;;;;;;0.40;0.30;;;;;;;3.78;61.74;95044.47;5138525;27;20496;-55
2023/04/07 02:32:16;;;;;;;0.47;0.47;;;;;;;3.83;62.03;95036.72;5138176;27;20438;-55
2023/04/07 02:34:45;;;;;;;0.40;0.40;;;;;;;4.03;61.41;95044.16;5138563;27;20813;-55
2023/04/07 02:37:13;;;;;;;0.30;0.20;;;;;;;3.49;62.36;95048.09;5138104;27;20805;-55
2023/04/07 02:39:41;;;;;;;0.30;0.30;;;;;;;3.72;62.95;95048.81;5138594;27;20437;-55
2023/04/07 02:42:09;;;;;;;0.50;0.50;;;;;;;3.45;63.16;95050.38;5137714;27;20505;-55
2023/04/07 02:44:38;;;;;;;0.40;0.30;;;;;;;3.31;63.96;95056.09;5138316;27;20461;-55
2023/04/07 02:47:06;;;;;;;0.73;0.73;;;;;;;3.05;64.11;95041.69;5137686;27;20444;-55
2023/04/07 02:49:36;;;;;;;1.03;1.03;;;;;;;2.90;64.67;95055.22;5137867;27;20435;-55
2023/04/07 02:52:04;;;;;;;0.70;0.40;;;;;;;2.92;64.56;95055.78;5134265;27;20446;-55
2023/04/07 02:54:33;;;;;;;1.10;1.00;;;;;;;2.73;64.55;94995.94;5135146;27;20431;-55
2023/04/07 02:57:01;;;;;;;0.87;0.87;;;;;;;2.87;64.61;95045.22;5135593;27;20431;-55
2023/04/07 02:59:29;;;;;;;0.40;0.30;;;;;;;3.02;64.84;95047.38;5134650;27;20450;-55
2023/04/07 03:01:58;;;;;;;1.30;1.20;;;;;;;3.25;64.25;95059.63;5135692;27;20494;-55
2023/04/07 03:04:27;;;;;;;4.50;1.07;;;;;;;3.06;64.42;95056.38;5134890;27;21012;-55
2023/04/07 03:06:56;;;;;;;0.50;0.50;;;;;;;2.96;64.00;95051.69;5135327;27;20442;-55
2023/04/07 03:09:25;;;;;;;6.17;2.47;;;;;;;2.92;64.56;95062.84;5134424;27;20435;-55
2023/04/07 03:11:53;;;;;;;1.63;0.80;;;;;;;3.26;64.00;95069.91;5135004;27;20859;-55
2023/04/07 03:14:22;;;;;;;4.27;0.40;;;;;;;3.52;63.30;95061.53;5134908;27;20456;-55
2023/04/07 03:16:50;;;;;;;0.50;0.50;;;;;;;3.50;62.88;95074.06;5135122;27;20467;-55
2023/04/07 03:19:18;;;;;;;0.80;0.80;;;;;;;3.27;63.14;95068.84;5133908;27;20430;-55
2023/04/07 03:21:47;;;;;;;0.83;0.60;;;;;;;3.42;62.74;95069.19;5134672;27;20575;-56
2023/04/07 03:24:17;;;;;;;4.53;1.43;;;;;;;3.20;63.60;95071.59;5133832;27;20943;-55
2023/04/07 03:26:45;;;;;;;0.40;0.40;;;;;;;3.14;63.68;95069.09;5134846;27;20435;-55
2023/04/07 03:29:14;;;;;;;4.57;1.03;;;;;;;3.12;64.08;95079.81;5134516;27;20427;-55
2023/04/07 03:31:42;;;;;;;1.40;1.37;;;;;;;3.33;63.63;95067.94;5134830;27;21004;-55
2023/04/07 03:34:10;;;;;;;1.07;0.60;;;;;;;3.77;64.24;95076.94;5134291;27;20557;-55
2023/04/07 03:36:39;;;;;;;9.13;2.23;;;;;;;3.60;62.37;95071.66;5134758;27;20427;-55
2023/04/07 03:39:07;;;;;;;0.87;0.47;;;;;;;3.89;62.24;95069.06;5107868;27;20543;-55
2023/04/07 03:41:37;;;;;;;0.50;0.50;;;;;;;4.01;61.77;95072.44;5133611;27;20459;-55
2023/04/07 03:44:05;;;;;;;0.40;0.40;;;;;;;3.68;61.88;95081.78;5131323;27;20463;-55
2023/04/07 03:46:34;;;;;;;0.87;0.87;;;;;;;3.15;63.20;95052.38;5128783;27;20939;-55
2023/04/07 03:49:02;;;;;;;1.57;1.47;;;;;;;3.61;62.63;95086.34;5134845;27;20442;-55
2023/04/07 03:51:31;;;;;;;3.57;0.67;;;;;;;4.09;61.53;95079.94;5134289;27;20467;-56
2023/04/07 03:54:00;;;;;;;1.30;1.30;;;;;;;3.75;61.71;95077.19;5134374;27;20505;-56
2023/04/07 03:56:28;;;;;;;0.60;0.50;;;;;;;3.89;61.57;95084.78;5133954;27;20522;-56
2023/04/07 03:58:58;;;;;;;0.43;0.43;;;;;;;3.81;61.40;95089.38;5134576;27;20858;-56
2023/04/07 04:01:26;;;;;;;0.60;0.40;;;;;;;3.84;60.77;95082.88;5133901;27;20547;-56
2023/04/07 04:03:55;;;;;;;0.37;0.33;;;;;;;3.82;61.29;95092.78;5133909;27;20442;-56
2023/04/07 04:06:25;;;;;;;0.63;0.63;;;;;;;3.73;61.42;95102.84;5133826;27;21027;-56
2023/04/07 04:08:53;;;;;;;0.53;0.53;;;;;;;3.25;62.50;95097.09;5134114;27;20488;-56
2023/04/07 04:11:22;;;;;;;0.80;0.77;;;;;;;3.36;62.55;95101.53;5133757;27;20949;-56
2023/04/07 04:13:50;;;;;;;1.63;1.37;;;;;;;3.37;62.58;95097.88;5133033;27;20534;-56
2023/04/07 04:16:21;;;;;;;0.53;0.50;;;;;;;3.15;63.68;95105.53;5133526;27;20801;-56
2023/04/07 04:18:49;;;;;;;0.50;0.50;;;;;;;3.14;63.25;95113.59;5134204;27;20437;-56
2023/04/07 04:21:18;;;;;;;4.10;0.90;;;;;;;2.95;63.95;95110.31;5133616;27;20435;-56
2023/04/07 04:23:46;;;;;;;5.13;0.90;;;;;;;2.71;63.85;95066.03;5133544;27;20462;-56
2023/04/07 04:26:14;;;;;;;0.57;0.57;;;;;;;3.05;64.69;95112.34;5134025;27;20470;-56
2023/04/07 04:28:43;;;;;;;1.03;0.60;;;;;;;3.33;64.14;95107.22;5133976;27;20895;-56
2023/04/07 04:31:11;;;;;;;0.50;0.40;;;;;;;3.20;62.91;95042.00;5133058;27;20935;-56
2023/04/07 04:33:41;;;;;;;2.00;0.30;;;;;;;3.58;62.87;95109.59;5133467;27;20497;-56
2023/04/07 04:36:09;;;;;;;0.67;0.40;;;;;;;3.57;63.01;95124.50;5133777;27;20505;-56
2023/04/07 04:38:38;;;;;;;0.97;0.97;;;;;;;3.39;62.98;95116.78;5133515;27;20435;-56
2023/04/07 04:41:06;;;;;;;1.03;0.93;;;;;;;3.56;62.74;95127.38;5132213;27;20477;-56
2023/04/07 04:43:34;;;;;;;2.60;0.40;;;;;;;3.62;62.90;95127.25;5132873;27;20550;-56
2023/04/07 04:46:03;;;;;;;0.50;0.50;;;;;;;3.84;62.45;95125.59;5132637;27;20466;-56
2023/04/07 04:48:31;;;;;;;0.60;0.60;;;;;;;4.03;61.42;95135.91;5132457;27;20441;-56
2023/04/07 04:51:00;;;;;;;0.70;0.50;;;;;;;4.42;60.76;95125.41;5133387;27;20794;-56
2023/04/07 04:53:29;;;;;;;0.30;0.30;;;;;;;5.04;60.71;95126.19;5132600;27;20435;-55
2023/04/07 04:55:57;;;;;;;1.63;1.53;;;;;;;4.65;61.19;95135.00;5132756;27;20434;-55
2023/04/07 04:58:26;;;;;;;0.60;0.60;;;;;;;4.38;62.60;95123.47;5132083;27;20990;-55
2023/04/07 05:00:57;;;;;;;1.57;1.47;;;;;;;4.49;62.89;95131.31;5132797;27;20438;-56
2023/04/07 05:03:25;;;;;;;0.87;0.87;;;;;;;4.25;65.54;95139.50;5133008;27;20539;-55
2023/04/07 05:05:54;;;;;;;2.83;1.63;;;;;;;4.38;65.78;95139.22;5132331;27;20522;-55
2023/04/07 05:08:24;;;;;;;2.00;0.93;;;;;;;4.14;65.56;95132.47;5132773;27;20501;-56
2023/04/07 05:10:52;;;;;;;0.30;0.20;;;;;;;4.39;65.56;95140.81;5132400;27;20935;-56
2023/04/07 05:13:21;;;;;;;0.53;0.30;;;;;;;4.39;65.98;95140.81;5132595;27;20504;-56
2023/04/07 05:15:49;;;;;;;1.13;1.13;;;;;;;4.43;66.06;95147.97;5132303;27;20444;-56
2023/04/07 05:18:17;;;;;;;0.80;0.80;;;;;;;4.56;65.56;95139.03;5131662;27;20874;-56
2023/04/07 05:20:48;;;;;;;0.40;0.30;;;;;;;4.77;65.42;95146.22;5132607;27;20443;-56
2023/04/07 05:23:17;;;;;;;0.70;0.70;;;;;;;4.90;64.60;95151.19;5132410;27;20926;-56
2023/04/07 05:25:46;;;;;;;0.93;0.50;;;;;;;5.16;63.27;95154.22;5118522;27;20931;-56
2023/04/07 05:28:15;;;;;;;0.30;0.20;;;;;;;5.61;62.37;95163.56;5132734;27;20471;-56
2023/04/07 05:30:43;;;;;;;1.80;0.40;;;;;;;5.84;61.03;95161.75;5132240;27;20432;-56
2023/04/07 05:33:12;;;;;;;13.23;0.60;;;;;;;5.78;60.54;95158.25;5132419;27;20439;-56
2023/04/07 05:35:40;;;;;;;0.30;0.20;;;;;;;5.86;60.07;95162.34;5132369;27;20439;-56
2023/04/07 05:38:09;;;;;;;0.40;0.30;;;;;;;5.99;59.94;95156.72;5132530;28;20449;-56
2023/04/07 05:40:37;;;;;;;0.37;0.27;;;;;;;5.91;59.89;95152.69;5132341;28;20466;-56
2023/04/07 05:43:07;;;;;;;3.93;0.50;;;;;;;6.31;59.01;95162.91;5132721;28;20474;-56
2023/04/07 05:45:35;;;;;;;0.40;0.30;;;;;;;6.77;58.24;95156.28;5106180;28;20433;-56
2023/04/07 05:48:04;;;;;;;0.40;0.20;;;;;;;6.52;58.79;95142.88;5132502;28;20451;-56
2023/04/07 05:50:32;;;;;;;0.53;0.47;;;;;;;6.59;57.95;95156.63;5131981;28;20441;-56
2023/04/07 05:53:01;;;;;;;0.60;0.60;;;;;;;6.42;58.63;95119.06;5132128;27;20438;-57
2023/04/07 05:55:29;;;;;;;1.60;0.73;;;;;;;6.87;58.71;95157.19;5132480;27;20939;-57
2023/04/07 05:57:58;;;;;;;0.50;0.33;;;;;;;7.35;58.29;95156.25;5132667;27;20499;-57
2023/04/07 06:00:28;;;;;;;1.77;1.67;;;;;;;7.15;58.82;95157.94;5132060;28;20458;-57
2023/04/07 06:02:56;;;;;;;2.40;2.30;;;;;;;6.60;58.27;95166.13;5131990;28;20867;-57
2023/04/07 06:05:24;;;;;;;0.83;0.83;;;;;;;6.49;60.37;95159.94;5132388;28;20447;-57
2023/04/07 06:07:53;;;;;;;9.13;1.73;;;;;;;6.80;58.72;95166.31;5131919;28;20476;-57
2023/04/07 06:10:22;;;;;;;5.33;1.60;;;;;;;7.07;58.77;95161.03;5132418;27;20451;-57
2023/04/07 06:12:50;;;;;;;1.33;1.23;;;;;;;7.28;58.36;95154.88;5132180;28;20436;-58
2023/04/07 06:15:18;;;;;;;1.17;1.10;;;;;;;7.18;57.98;95094.19;5132011;27;20435;-57
2023/04/07 06:17:48;;;;;;;0.30;0.30;;;;;;;7.32;57.53;95133.03;5131900;28;20506;-57
2023/04/07 06:20:16;;;;;;;0.50;0.50;;;;;;;7.75;56.05;95166.28;5131915;28;20455;-57
2023/04/07 06:22:45;;;;;;;2.83;1.40;;;;;;;8.23;55.40;95152.00;5132228;27;20471;-56
2023/04/07 06:25:13;;;;;;;2.27;2.17;;;;;;;8.04;55.49;95150.88;5131935;27;20465;-56
2023/04/07 06:27:43;;;;;;;1.50;1.40;;;;;;;7.75;55.88;95145.16;5136091;27;20438;-57
2023/04/07 06:30:12;;;;;;;14.83;1.40;;;;;;;8.19;58.76;95170.22;5136308;27;20949;-57
2023/04/07 06:32:40;;;;;;;1.57;1.47;;;;;;;8.77;59.08;95171.75;5109119;27;20454;-57
2023/04/07 06:35:10;;;;;;;0.80;0.77;;;;;;;8.81;57.85;95170.19;5135833;27;20444;-57
2023/04/07 06:37:39;;;;;;;0.97;0.60;;;;;;;9.50;55.00;95177.63;5126333;27;20888;-57
2023/04/07 06:40:08;;;;;;;0.40;0.30;;;;;;;9.32;54.07;95172.88;5135557;27;20434;-57
2023/04/07 06:42:36;;;;;;;0.33;0.30;;;;;;;9.88;53.03;95174.41;5135440;27;20999;-57
2023/04/07 06:45:06;;;;;;;0.70;0.70;;;;;;;9.22;53.33;95167.59;5134691;27;20434;-57
2023/04/07 06:47:34;;;;;;;3.43;1.50;;;;;;;9.58;52.21;95175.25;5135546;27;20452;-57
2023/04/07 06:50:02;;;;;;;0.70;0.70;;;;;;;9.68;52.03;95176.31;5135328;27;20434;-56
2023/04/07 06:52:32;;;;;;;3.37;1.83;;;;;;;10.16;50.92;95168.56;5135274;27;20538;-57
2023/04/07 06:55:00;;;;;;;0.97;0.97;;;;;;;10.55;49.84;95166.00;5131230;27;20478;-57
2023/04/07 06:57:29;;;;;;;0.50;0.40;;;;;;;11.28;48.94;95140.34;5126360;27;20830;-57
2023/04/07 06:59:57;;;;;;;1.40;0.97;;;;;;;11.04;45.84;95093.59;5134750;27;20435;-57
2023/04/07 07:02:25;;;;;;;2.10;0.83;;;;;;;11.66;45.00;95164.47;5135188;27;21000;-57
2023/04/07 07:04:54;;;;;;;1.53;0.60;;;;;;;11.54;44.20;95156.88;5134765;27;20534;-56
2023/04/07 07:07:24;;;;;;;0.50;0.50;;;;;;;11.90;45.69;95162.69;5135079;27;20439;-56
2023/04/07 07:09:54;;;;;;;2.73;0.77;;;;;;;11.97;45.10;95152.50;5135498;27;20877;-56
2023/04/07 07:12:22;;;;;;;1.83;1.73;;;;;;;12.16;45.04;95157.91;5134665;27;20449;-56
2023/04/07 07:14:50;;;;;;;1.80;0.70;;;;;;;11.69;45.14;95172.69;5135156;27;20526;-56
2023/04/07 07:17:19;;;;;;;0.93;0.87;;;;;;;12.08;45.56;95159.31;5133273;27;20431;-56
2023/04/07 07:19:47;;;;;;;1.77;1.07;;;;;;;11.88;43.63;95162.19;5123573;27;20469;-56
2023/04/07 07:22:15;;;;;;;0.80;0.80;;;;;;;12.63;44.19;95163.97;5134589;27;20446;-56
2023/04/07 07:24:44;;;;;;;1.13;1.00;;;;;;;13.21;41.04;95167.19;5134525;27;20494;-56
2023/04/07 07:27:13;;;;;;;1.37;0.87;;;;;;;12.81;41.13;95140.34;5135043;27;20549;-56
2023/04/07 07:29:42;;;;;;;10.33;2.57;;;;;;;12.51;39.57;95168.13;5134719;27;20434;-55
2023/04/07 07:32:10;;;;;;;1.07;1.07;;;;;;;13.03;38.88;95170.63;5134127;27;20696;-55
2023/04/07 07:34:39;;;;;;;0.43;0.37;;;;;;;14.19;37.67;95167.97;5134026;27;20482;-54
2023/04/07 07:37:07;;;;;;;0.50;0.43;;;;;;;13.15;38.74;95163.06;5129041;27;20446;-54
2023/04/07 07:39:35;;;;;;;0.80;0.80;;;;;;;13.56;38.25;95163.19;5133856;27;20435;-54
2023/04/07 07:42:04;;;;;;;1.13;1.13;;;;;;;13.50;38.60;95161.72;5133927;27;20493;-55
2023/04/07 07:44:33;;;;;;;2.40;1.03;;;;;;;13.70;37.96;95152.59;5133400;27;20857;-55
2023/04/07 07:47:02;;;;;;;1.27;1.23;;;;;;;15.16;37.10;95155.06;5133110;27;20961;-55
2023/04/07 07:49:30;;;;;;;4.73;1.57;;;;;;;14.57;37.27;95150.75;5133917;27;20839;-55
2023/04/07 07:51:59;;;;;;;0.87;0.87;;;;;;;14.03;36.83;95146.13;5134235;27;20431;-55
2023/04/07 07:54:28;;;;;;;0.40;0.33;;;;;;;15.45;36.58;95141.31;5133473;27;20479;-55
2023/04/07 07:56:56;;;;;;;2.20;0.70;;;;;;;15.21;35.57;95117.56;5133702;27;20519;-56
2023/04/07 07:59:24;;;;;;;1.10;0.97;;;;;;;14.80;34.25;95141.69;5134073;27;20439;-56
2023/04/07 08:01:54;;;;;;;0.70;0.53;;;;;;;16.14;33.94;95142.53;5107689;27;20597;-57
2023/04/07 08:04:23;;;;;;;1.23;1.20;;;;;;;14.67;32.84;95121.19;5133624;27;20474;-58
2023/04/07 08:06:52;;;;;;;4.30;1.23;;;;;;;14.50;32.86;95151.13;5134138;27;20438;-59
2023/04/07 08:09:20;;;;;;;1.03;0.97;;;;;;;14.55;33.87;95155.56;5133648;27;20508;-60
2023/04/07 08:11:50;;;;;;;0.40;0.30;;;;;;;16.12;35.34;95140.16;5133902;27;20523;-61
2023/04/07 08:14:18;;;;;;;0.40;0.30;;;;;;;14.95;32.43;95144.03;5134122;27;20545;-62
2023/04/07 08:16:47;;;;;;;0.60;0.50;;;;;;;15.45;33.31;95139.47;5123900;27;20438;-63
2023/04/07 08:19:17;;;;;;;0.40;0.40;;;;;;;16.85;32.15;95136.03;5130513;27;20443;-63
2023/04/07 08:21:45;;;;;;;0.63;0.63;;;;;;;17.59;31.99;95140.16;5133566;27;20471;-63
2023/04/07 08:24:13;;;;;;;0.60;0.40;;;;;;;17.93;31.09;95144.69;5133547;27;20518;-63
2023/04/07 08:26:42;;;;;;;0.80;0.27;;;;;;;17.00;33.62;95130.22;5133871;27;20439;-65
2023/04/07 08:29:10;;;;;;;0.70;0.70;;;;;;;16.37;33.15;95088.66;5133920;27;20431;-66
2023/04/07 08:31:38;;;;;;;1.90;0.40;;;;;;;17.60;31.82;95138.28;5133372;27;20463;-65
2023/04/07 08:34:07;;;;;;;0.80;0.80;;;;;;;17.24;32.07;95138.56;5132389;27;20518;-68
2023/04/07 08:36:36;;;;;;;0.60;0.50;;;;;;;18.06;29.79;95113.41;5133152;27;20521;-68
2023/04/07 08:39:05;;;;;;;0.37;0.27;;;;;;;19.49;29.44;95135.53;5106514;27;20443;-67
2023/04/07 08:41:37;;;;;;;0.50;0.43;;;;;;;19.71;30.43;95119.00;5132573;27;20500;-67
2023/04/07 08:44:08;;;;;;;0.80;0.80;;;;;;;19.49;30.43;95127.44;5133295;27;20977;-67
2023/04/07 08:46:39;;;;;;;0.50;0.50;;;;;;;19.28;29.01;95114.00;5133059;27;20435;-67
2023/04/07 08:49:12;;;;;;;1.63;0.60;;;;;;;18.41;30.18;95117.53;5132513;27;20465;-66
2023/04/07 08:51:47;;;;;;;1.80;1.17;;;;;;;18.95;28.54;95119.28;5130106;27;20488;-64
2023/04/07 08:54:20;;;;;;;0.73;0.73;;;;;;;18.44;28.73;95116.91;5132843;27;20466;-64
2023/04/07 08:56:49;;;;;;;0.53;0.30;;;;;;;19.09;30.25;95110.19;5133234;27;20980;-62
2023/04/07 08:59:25;;;;;;;0.80;0.63;;;;;;;19.82;27.75;95101.34;5132815;27;20441;-62
2023/04/07 09:01:55;;;;;;;6.37;0.50;;;;;;;19.82;27.07;95089.81;5133183;27;20430;-61
2023/04/07 09:04:23;;;;;;;0.90;0.90;;;;;;;20.06;27.97;95098.72;5132181;27;20815;-60
2023/04/07 09:06:53;;;;;;;0.70;0.40;;;;;;;19.91;30.06;95107.41;5133139;27;20530;-59
2023/04/07 09:09:23;;;;;;;11.90;0.97;;;;;;;18.29;30.51;95106.72;5132196;27;20439;-59
2023/04/07 09:11:51;;;;;;;0.70;0.60;;;;;;;18.05;30.20;95114.50;5132248;27;20989;-59
2023/04/07 09:14:21;;;;;;;6.40;1.17;;;;;;;18.04;29.53;95111.03;5131993;27;20439;-59
2023/04/07 09:16:49;;;;;;;3.13;0.57;;;;;;;17.76;29.11;95113.31;5132992;27;20953;-59
2023/04/07 09:19:17;;;;;;;0.83;0.73;;;;;;;19.14;30.13;95092.00;5132168;27;20439;-59
2023/04/07 09:21:50;;;;;;;2.47;0.50;;;;;;;19.79;28.18;95091.25;5132224;27;20600;-58
2023/04/07 09:24:24;;;;;;;0.50;0.50;;;;;;;19.13;28.50;95095.78;5132269;27;20565;-58
2023/04/07 09:27:09;;;;;;;1.17;1.17;;;;;;;21.17;26.55;95090.31;5132261;27;20438;-59
2023/04/07 09:29:38;;;;;;;0.40;0.30;;;;;;;20.29;29.41;95092.97;5132850;27;20852;-59
2023/04/07 09:32:06;;;;;;;0.40;0.40;;;;;;;18.86;28.30;95097.09;5130094;27;20518;-59
2023/04/07 09:34:36;;;;;;;0.50;0.40;;;;;;;18.31;28.63;95096.44;5120887;27;20868;-59
2023/04/07 09:37:09;;;;;;;0.60;0.60;;;;;;;19.40;28.61;95067.63;5131238;27;20447;-59
2023/04/07 09:39:51;;;;;;;0.40;0.30;;;;;;;20.41;27.50;95066.03;5132083;27;20813;-60
2023/04/07 09:42:21;;;;;;;0.50;0.40;;;;;;;19.57;27.94;95070.13;5131680;28;20434;-60
2023/04/07 09:44:49;;;;;;;0.57;0.57;;;;;;;20.42;28.85;95062.22;5131213;28;20960;-59
2023/04/07 09:47:18;;;;;;;0.70;0.70;;;;;;;20.52;28.48;95067.94;5132204;28;20624;-59
2023/04/07 09:49:52;;;;;;;0.57;0.57;;;;;;;19.97;28.84;95064.97;5132129;27;20445;-59
2023/04/07 09:52:25;;;;;;;3.90;0.70;;;;;;;21.51;27.91;95070.88;5132639;28;20466;-60
2023/04/07 09:54:56;;;;;;;0.40;0.40;;;;;;;21.26;27.72;95016.25;5132454;27;20449;-59
2023/04/07 09:57:25;;;;;;;0.63;0.53;;;;;;;21.95;26.67;95061.69;5132469;27;20439;-59
2023/04/07 09:59:54;;;;;;;0.70;0.70;;;;;;;22.31;27.63;95063.34;5133410;27;20473;-58
2023/04/07 10:02:25;;;;;;;0.90;0.90;;;;;;;20.36;27.88;95068.97;5136249;27;20451;-58
2023/04/07 10:04:54;;;;;;;0.73;0.60;;;;;;;21.42;28.25;95056.75;5136542;27;20897;-59
2023/04/07 10:07:22;;;;;;;1.80;1.33;;;;;;;20.95;27.43;95039.59;5136284;27;20518;-59
2023/04/07 10:09:51;;;;;;;0.70;0.70;;;;;;;21.02;27.41;95062.16;5136411;27;20522;-59
2023/04/07 10:12:21;;;;;;;0.60;0.60;;;;;;;22.51;27.32;95054.19;5136421;27;20431;-58
2023/04/07 10:14:51;;;;;;;0.97;0.90;;;;;;;22.57;26.84;95062.78;5109546;27;20885;-58
2023/04/07 10:17:20;;;;;;;1.37;0.40;;;;;;;22.70;28.41;95056.16;5135931;27;20435;-58
2023/04/07 10:19:50;;;;;;;1.07;0.70;;;;;;;23.19;26.70;95051.84;5136245;27;20473;-57
2023/04/07 10:22:19;;;;;;;1.07;0.97;;;;;;;22.51;26.16;95051.47;5135478;27;20435;-58
2023/04/07 10:24:56;;;;;;;1.33;0.70;;;;;;;22.56;28.07;95043.09;5135345;27;20484;-59
2023/04/07 10:27:31;;;;;;;0.80;0.70;;;;;;;21.81;27.67;95042.38;5135160;27;20499;-58
2023/04/07 10:30:02;;;;;;;0.93;0.93;;;;;;;21.78;27.26;95051.16;5135534;27;20503;-59
2023/04/07 10:32:31;;;;;;;1.97;0.43;;;;;;;22.81;26.39;95043.69;5135703;27;20443;-59
2023/04/07 10:35:00;;;;;;;0.50;0.50;;;;;;;23.18;26.20;95036.75;5135727;27;20457;-59
2023/04/07 10:37:28;;;;;;;0.40;0.30;;;;;;;24.29;25.37;95034.94;5135130;27;20430;-58
2023/04/07 10:40:28;;;;;;;0.40;0.30;;;;;;;24.47;25.45;95033.31;5135557;27;20922;-59
2023/04/07 10:42:58;;;;;;;0.40;0.37;;;;;;;24.53;25.58;95026.44;5134908;27;20958;-58
2023/04/07 10:46:00;;;;;;;0.83;0.83;;;;;;;23.98;27.23;95017.03;5134827;27;20514;-58
2023/04/07 10:48:31;;;;;;;0.50;0.50;;;;;;;20.40;26.87;95032.16;5134776;27;20442;-59
2023/04/07 10:51:17;;;;;;;0.90;0.90;;;;;;;20.73;27.49;95040.88;5135209;27;20442;-57
2023/04/07 10:54:19;;;;;;;0.40;0.30;;;;;;;22.61;25.48;95037.44;5135370;27;20525;-59
2023/04/07 10:57:14;;;;;;;0.57;0.47;;;;;;;24.26;24.48;95024.88;5129049;27;20477;-58
2023/04/07 11:00:17;;;;;;;0.80;0.80;;;;;;;23.83;27.72;94997.03;5086843;27;20963;-58
2023/04/07 11:02:46;;;;;;;0.40;0.30;;;;;;;23.65;26.85;95016.81;5134374;27;20537;-54
2023/04/07 11:05:22;;;;;;;0.47;0.30;;;;;;;22.63;26.91;95026.28;5135076;27;20512;-55
2023/04/07 11:07:56;;;;;;;0.50;0.30;;;;;;;23.35;26.27;95030.16;5134718;27;20460;-54
2023/04/07 11:10:25;;;;;;;0.83;0.60;;;;;;;24.49;26.03;95015.53;5135463;27;20438;-55
2023/04/07 11:13:01;;;;;;;0.43;0.40;;;;;;;23.51;25.50;95009.22;5134112;27;20434;-55
2023/04/07 11:15:32;;;;;;;1.03;0.40;;;;;;;24.89;26.17;95008.78;5134642;27;20519;-56
2023/04/07 11:18:11;;;;;;;0.43;0.40;;;;;;;24.88;26.55;95010.72;5135162;27;20436;-56
2023/04/07 11:20:45;;;;;;;0.40;0.30;;;;;;;24.39;22.96;95004.53;5134813;27;20888;-61
2023/04/07 11:23:15;;;;;;;0.40;0.40;;;;;;;24.61;23.76;94982.84;5133920;27;20439;-61
2023/04/07 11:25:45;;;;;;;1.30;1.27;;;;;;;22.94;23.80;95003.81;5134647;27;20467;-61
2023/04/07 11:28:14;;;;;;;0.60;0.60;;;;;;;20.97;24.42;94970.00;5134858;27;20484;-62
2023/04/07 11:30:50;;;;;;;0.77;0.77;;;;;;;23.45;21.59;94996.34;5134893;27;20438;-61
2023/04/07 11:33:21;;;;;;;0.40;0.30;;;;;;;23.42;25.69;94995.16;5134300;27;20545;-61
2023/04/07 11:35:55;;;;;;;0.50;0.50;;;;;;;23.05;24.32;95000.16;5134022;27;20471;-61
2023/04/07 11:38:26;;;;;;;0.50;0.43;;;;;;;23.10;22.48;94996.41;5134325;27;20439;-60
2023/04/07 11:40:56;;;;;;;1.47;0.50;;;;;;;23.20;22.40;94944.44;5133824;27;20439;-62
2023/04/07 11:43:26;;;;;;;0.50;0.40;;;;;;;24.11;20.83;94988.63;5133280;27;20446;-62
2023/04/07 11:46:06;;;;;;;0.50;0.40;;;;;;;23.82;20.31;94995.50;5133172;27;20565;-62
2023/04/07 11:48:36;;;;;;;0.80;0.80;;;;;;;22.66;17.59;94990.47;5132949;27;20446;-62
2023/04/07 11:51:05;;;;;;;0.60;0.60;;;;;;;23.30;18.30;94990.63;5133703;27;20447;-62
2023/04/07 11:53:36;;;;;;;0.40;0.30;;;;;;;23.12;18.65;94980.63;5133896;27;20844;-62
2023/04/07 11:56:08;;;;;;;0.30;0.30;;;;;;;23.16;17.03;94967.94;5133903;27;20438;-62